Decoded Metar for UGSB (BATUMI in GEORGIA) (IATA:N/A) | Meteo·Mobile Aviation Weather
aviador You're here:

UGSB Decoded Metar

BATUMI in GEORGIA
Report Time2018-11-19 05:00:00
UTC Time2018-11-19 05:19:57
Flight Rules vfr VFR
Wind140° at 18 kt
W.Decomp.*RWY 13: 17.9 kt HW 1.9 kt RCW
W.Rank140° ranks 2
Current wind is above 140° avg. (10.8)
Visibility9999 m
Phenomena:N/A
Clouds:N/A
Expected CloudBase > 2,800 ft AGL from Temp-Dew spread
CeilingNone
Temp09°C (ISA -6)
Dew Point02°C (62% RH)
AAT0.9°C
QNH1021 hPa
Density Alt-761 ft
Elevation105 ft
Report Wrong Elevation
Raw Report
METAR UGSB 190500Z 14018KT CAVOK 09/02 Q1021 NOSIG=

Extra information for UGSB:More info

Metar Taf Metar & Taf Last 4 Metars F.Rules Stats Wind Profile Meteogram Temp Stats Airport Information Weather charts Add Link Nearby VenuesMetar ALERT Operation Metar Decoded Social comments